Time;durP1;ratioP1;P1;durP2;ratioP2;P2;SDS_P1;SDS_P2;PMS_P1;PMS_P2;Temp;Humidity;BMP_temperature;BMP_pressure;BME280_temperature;BME280_humidity;BME280_pressure;Samples;Min_cycle;Max_cycle;Signal;HPM_P1;HPM_P2
2021/06/02 00:02:16;;;;;;;9.77;6.03;;;21.80;99.90;;;22.14;45.17;101379.63;5092250;28;20048;-74
2021/06/02 00:04:47;;;;;;;7.28;6.53;;;21.80;99.90;;;22.21;45.18;101400.84;5091972;28;20109;-74
2021/06/02 00:07:20;;;;;;;7.70;6.47;;;21.80;99.90;;;22.19;45.16;101402.72;5092311;28;20435;-74
2021/06/02 00:09:48;;;;;;;9.15;5.93;;;21.80;99.90;;;22.19;45.20;101404.53;5091995;28;20048;-74
2021/06/02 00:12:18;;;;;;;9.57;6.38;;;21.70;99.90;;;22.20;45.34;101401.75;5091900;28;20048;-74
2021/06/02 00:14:46;;;;;;;6.70;6.00;;;21.70;99.90;;;22.11;44.98;101391.41;5092106;28;20040;-73
2021/06/02 00:17:16;;;;;;;10.30;6.38;;;21.70;99.90;;;21.99;45.16;101373.06;5092360;28;20040;-74
2021/06/02 00:19:45;;;;;;;6.93;6.30;;;21.70;99.90;;;22.14;45.47;101406.56;5073718;28;20080;-72
2021/06/02 00:22:12;;;;;;;9.82;7.57;;;21.70;99.90;;;22.10;45.13;101400.44;5092204;28;20052;-72
2021/06/02 00:24:40;;;;;;;10.13;6.45;;;21.70;99.90;;;22.07;45.25;101392.47;5092053;28;20040;-72
2021/06/02 00:27:11;;;;;;;7.45;6.70;;;21.70;99.90;;;22.06;45.20;101403.31;5073562;28;20079;-72
2021/06/02 00:29:44;;;;;;;8.35;6.25;;;21.60;99.90;;;22.00;45.33;101391.00;5074162;28;20155;-72
2021/06/02 00:32:14;;;;;;;12.80;6.72;;;21.60;99.90;;;22.00;45.53;101388.31;5092020;28;20093;-72
2021/06/02 00:34:43;;;;;;;;;;;21.60;99.90;;;21.99;45.53;101391.06;5074158;28;20143;-73
2021/06/02 00:37:11;;;;;;;9.35;6.80;;;21.60;99.90;;;21.93;45.68;101399.41;5073712;28;19920;-72
2021/06/02 00:39:40;;;;;;;6.90;6.18;;;21.50;99.90;;;21.88;45.69;101388.81;5091620;28;20054;-72
2021/06/02 00:42:08;;;;;;;10.32;7.07;;;21.40;99.90;;;21.88;45.75;101394.22;5073917;28;20048;-72
2021/06/02 00:44:35;;;;;;;7.70;6.90;;;21.40;99.90;;;21.83;45.59;101389.97;5091560;28;20439;-72
2021/06/02 00:47:05;;;;;;;9.15;7.47;;;21.40;99.90;;;21.68;45.84;101363.66;5073587;28;20117;-72
2021/06/02 00:49:33;;;;;;;7.28;6.57;;;21.40;99.90;;;21.56;45.82;101346.19;5094346;28;20106;-72
2021/06/02 00:52:04;;;;;;;11.23;7.90;;;21.30;99.90;;;21.70;46.03;101380.63;5095353;28;20052;-72
2021/06/02 00:54:35;;;;;;;;;;;21.30;99.90;;;21.71;46.29;101377.84;5096082;28;20128;-72
2021/06/02 00:57:05;;;;;;;8.20;6.80;;;21.30;99.90;;;21.59;46.48;101375.66;5095022;28;19920;-72
2021/06/02 00:59:35;;;;;;;;;;;21.20;99.90;;;21.54;46.80;101385.75;5096028;28;20047;-72
2021/06/02 01:02:08;;;;;;;8.63;6.97;;;21.20;99.90;;;21.27;46.47;101354.59;5077015;28;20014;-72
2021/06/02 01:04:36;;;;;;;8.70;7.38;;;21.10;99.90;;;21.40;46.65;101378.25;5076977;28;20063;-72
2021/06/02 01:07:07;;;;;;;7.85;6.80;;;21.00;99.90;;;21.37;46.71;101369.41;5094842;28;20071;-72
2021/06/02 01:09:35;;;;;;;;;;;21.00;99.90;;;21.29;46.44;101358.09;5095262;28;20036;-72
2021/06/02 01:12:04;;;;;;;7.60;6.85;;;21.00;99.90;;;21.26;46.90;101375.22;5095294;28;19924;-72
2021/06/02 01:14:34;;;;;;;9.40;7.43;;;20.90;99.90;;;21.26;47.09;101369.84;5076859;28;20151;-72
2021/06/02 01:17:06;;;;;;;9.93;6.95;;;20.80;99.90;;;21.10;46.58;101359.78;5077010;28;20462;-72
2021/06/02 01:19:34;;;;;;;9.52;6.80;;;20.80;99.90;;;21.13;47.07;101362.31;5095008;28;20135;-72
2021/06/02 01:22:04;;;;;;;9.60;6.85;;;20.70;99.90;;;21.13;47.24;101365.03;5094914;28;20050;-72
2021/06/02 01:24:33;;;;;;;8.60;6.93;;;20.70;99.90;;;21.00;47.71;101355.66;5094882;28;20098;-72
2021/06/02 01:27:05;;;;;;;7.78;6.38;;;20.70;99.90;;;21.02;47.56;101367.28;5095207;28;20048;-72
2021/06/02 01:29:45;;;;;;;7.50;6.80;;;20.60;99.90;;;20.98;47.69;101361.06;5076836;28;20052;-72
2021/06/02 01:32:56;;;;;;;7.80;7.00;;;20.60;99.90;;;20.92;48.10;101360.47;5076606;28;20091;-72
2021/06/02 01:35:51;;;;;;;8.15;7.32;;;20.60;99.90;;;20.96;48.21;101362.09;5031900;28;20053;-72
2021/06/02 01:39:04;;;;;;;9.32;7.38;;;20.60;99.90;;;20.93;48.36;101362.19;5091996;28;20064;-72
2021/06/02 01:42:12;;;;;;;10.20;6.93;;;20.60;99.90;;;20.83;48.98;101367.06;5094250;28;20040;-71
2021/06/02 01:45:25;;;;;;;9.80;6.97;;;20.50;99.90;;;20.80;49.54;101355.53;5076433;28;20497;-72
2021/06/02 01:48:29;;;;;;;7.97;7.25;;;20.40;99.90;;;20.80;49.65;101361.81;5067909;28;20064;-72
2021/06/02 01:51:51;;;;;;;10.77;7.53;;;20.40;99.90;;;20.79;49.81;101353.81;5094062;28;20073;-72
2021/06/02 01:55:01;;;;;;;10.13;7.65;;;20.40;99.90;;;20.76;50.29;101353.91;5094040;28;20090;-72
2021/06/02 01:58:17;;;;;;;8.50;7.70;;;20.40;99.90;;;20.74;50.40;101355.78;5094359;28;20485;-72
2021/06/02 02:00:55;;;;;;;8.98;7.78;;;20.40;99.90;;;20.64;51.24;101357.94;5074958;28;20485;-72
2021/06/02 02:04:06;;;;;;;10.95;8.43;;;20.30;99.90;;;20.60;51.36;101351.81;5094167;28;20153;-72
2021/06/02 02:07:22;;;;;;;8.85;7.88;;;20.20;99.90;;;20.59;51.74;101358.13;5030451;28;20083;-72
2021/06/02 02:10:27;;;;;;;12.73;8.80;;;20.20;99.90;;;20.49;51.83;101356.72;5093000;28;20493;-72
2021/06/02 02:13:12;;;;;;;10.32;9.23;;;20.20;99.90;;;19.96;52.61;101276.28;5075775;28;20048;-72
2021/06/02 02:16:08;;;;;;;16.05;9.15;;;20.00;99.90;;;20.23;53.54;101359.47;5093823;28;20051;-72
2021/06/02 02:19:01;;;;;;;13.52;9.50;;;19.90;99.90;;;20.25;53.96;101357.59;5093911;28;20079;-72
2021/06/02 02:21:43;;;;;;;12.18;10.50;;;19.90;99.90;;;20.28;54.27;101359.31;5093849;28;20044;-72
2021/06/02 02:24:28;;;;;;;17.73;10.30;;;19.90;99.90;;;20.17;54.80;101358.81;5093896;28;20047;-72
2021/06/02 02:27:07;;;;;;;12.18;10.90;;;19.80;99.90;;;20.04;55.53;101357.47;5093965;28;20048;-72
2021/06/02 02:29:55;;;;;;;15.10;10.75;;;19.70;99.90;;;20.01;56.22;101353.09;5075385;28;20503;-72
2021/06/02 02:32:48;;;;;;;13.63;11.50;;;19.70;99.90;;;19.97;56.50;101355.94;5075256;28;20051;-72
2021/06/02 02:35:42;;;;;;;13.73;12.32;;;19.60;99.90;;;19.85;57.29;101346.50;5092911;28;20052;-72
2021/06/02 02:38:31;;;;;;;15.57;11.75;;;19.50;99.90;;;19.76;57.97;101346.84;5079503;28;20097;-72
2021/06/02 02:41:10;;;;;;;14.95;11.43;;;19.40;99.90;;;19.74;58.45;101343.31;5093416;28;20078;-72
2021/06/02 02:43:57;;;;;;;17.52;12.63;;;19.40;99.90;;;19.76;58.74;101352.19;5093028;28;20093;-72
2021/06/02 02:46:33;;;;;;;20.45;14.13;;;19.40;99.90;;;19.64;59.46;101349.94;5093248;28;20071;-72
2021/06/02 02:49:15;;;;;;;16.15;12.77;;;19.30;99.90;;;19.60;59.85;101350.97;5093035;28;20052;-73
2021/06/02 02:51:52;;;;;;;16.50;13.02;;;19.20;99.90;;;19.48;60.46;101341.50;5092885;28;20047;-72
2021/06/02 02:54:28;;;;;;;16.80;13.95;;;19.20;99.90;;;19.34;61.06;101334.81;5092825;28;20044;-72
2021/06/02 02:57:24;;;;;;;18.30;13.63;;;19.10;99.90;;;19.29;61.51;101360.91;5093094;28;20495;-72
2021/06/02 02:59:59;;;;;;;19.30;14.82;;;19.00;99.90;;;19.34;62.08;101346.44;5074899;28;20052;-72
2021/06/02 03:02:36;;;;;;;19.17;15.32;;;19.00;99.90;;;19.29;62.26;101340.34;5092980;28;20043;-72
2021/06/02 03:05:08;;;;;;;18.27;15.32;;;19.00;99.90;;;19.32;62.44;101342.94;5092967;28;20101;-72
2021/06/02 03:07:41;;;;;;;22.38;15.45;;;19.00;99.90;;;19.11;63.10;101334.66;5092865;28;20048;-72
2021/06/02 03:10:15;;;;;;;20.45;15.82;;;18.90;99.90;;;18.99;63.50;101319.00;5074701;28;20570;-72
2021/06/02 03:12:57;;;;;;;21.35;15.70;;;18.80;99.90;;;19.00;63.83;101342.19;5092588;28;20452;-72
2021/06/02 03:15:42;;;;;;;20.48;15.93;;;18.70;99.90;;;19.00;64.22;101345.75;5092793;28;20108;-72
2021/06/02 03:18:40;;;;;;;22.55;15.60;;;18.70;99.90;;;19.06;64.35;101334.84;5092738;28;20044;-72
2021/06/02 03:21:36;;;;;;;20.27;15.82;;;18.70;99.90;;;19.04;64.48;101346.53;5092746;28;20047;-72
2021/06/02 03:24:15;;;;;;;21.30;16.42;;;18.70;99.90;;;19.03;64.54;101342.09;5092784;28;20105;-72
2021/06/02 03:26:53;;;;;;;20.48;15.48;;;18.70;99.90;;;19.05;64.58;101346.47;5092883;28;20040;-72
2021/06/02 03:29:38;;;;;;;25.30;15.60;;;18.70;99.90;;;19.01;64.47;101341.28;5074561;28;20076;-72
2021/06/02 03:32:24;;;;;;;19.65;15.38;;;18.70;99.90;;;19.00;64.52;101343.06;5092607;28;20093;-72
2021/06/02 03:35:04;;;;;;;23.58;16.63;;;18.70;99.90;;;18.91;65.08;101352.25;5092591;28;20116;-72
2021/06/02 03:38:06;;;;;;;21.65;15.98;;;18.60;99.90;;;18.73;65.73;101351.97;5092536;28;20063;-72
2021/06/02 03:40:45;;;;;;;22.67;16.88;;;18.50;99.90;;;18.32;65.72;101264.75;5092467;28;20121;-72
2021/06/02 03:43:23;;;;;;;21.80;16.15;;;18.50;99.90;;;18.87;65.40;101342.56;5092432;28;20493;-72
2021/06/02 03:46:05;;;;;;;18.08;15.90;;;18.50;99.90;;;18.84;65.23;101325.69;5092566;28;20070;-72
2021/06/02 03:48:45;;;;;;;23.17;16.25;;;18.50;99.90;;;18.42;65.14;101252.88;5092485;28;20052;-72
2021/06/02 03:51:36;;;;;;;17.13;15.27;;;18.60;99.90;;;18.98;65.14;101352.06;5092487;28;20048;-72
2021/06/02 03:54:27;;;;;;;25.05;16.23;;;18.60;99.90;;;18.72;65.71;101356.44;5074167;28;20161;-72
2021/06/02 03:57:11;;;;;;;;;;;18.50;99.90;;;18.36;66.71;101346.75;5074279;28;20075;-72
2021/06/02 03:59:42;;;;;;;20.20;16.25;;;18.20;99.90;;;17.72;67.35;101247.75;5092113;28;19920;-72
2021/06/02 04:02:19;;;;;;;20.42;16.25;;;17.90;99.90;;;18.18;67.86;101338.34;5092281;28;20425;-72
2021/06/02 04:05:19;;;;;;;19.08;16.13;;;17.80;99.90;;;18.20;67.94;101342.75;5092533;28;20044;-72
2021/06/02 04:08:06;;;;;;;20.65;16.75;;;17.90;99.90;;;18.17;68.38;101341.97;5074134;28;20097;-72
2021/06/02 04:10:45;;;;;;;20.48;17.05;;;17.80;99.90;;;18.14;67.99;101332.22;5074041;28;20052;-68
2021/06/02 04:13:31;;;;;;;21.40;16.38;;;17.80;99.90;;;18.23;68.03;101326.63;5092281;28;20075;-71
2021/06/02 04:16:09;;;;;;;20.17;15.57;;;17.90;99.90;;;18.39;67.73;101337.78;5092149;28;20040;-68
2021/06/02 04:18:37;;;;;;;21.48;16.65;;;18.00;99.90;;;18.43;67.45;101337.66;5091942;28;20052;-71
2021/06/02 04:21:08;;;;;;;18.25;16.23;;;18.10;99.90;;;18.55;67.27;101329.25;5091832;28;20083;-70
2021/06/02 04:23:39;;;;;;;18.83;16.33;;;18.10;99.90;;;18.32;67.42;101331.69;5093022;28;20051;-70
2021/06/02 04:26:07;;;;;;;22.67;16.02;;;18.00;99.90;;;18.20;67.82;101324.00;5095874;28;20490;-73
2021/06/02 04:28:36;;;;;;;21.67;16.13;;;17.90;99.90;;;18.22;67.83;101315.94;5095657;28;20439;-75
2021/06/02 04:31:06;;;;;;;25.63;16.52;;;17.90;99.90;;;18.42;67.37;101314.47;5095914;28;20040;-75
2021/06/02 04:33:37;;;;;;;20.35;16.10;;;18.00;99.90;;;18.43;66.81;101301.94;5095741;28;20409;-75
2021/06/02 04:36:09;;;;;;;21.92;15.60;;;18.20;99.90;;;18.51;66.63;101319.56;5095805;28;20044;-75
2021/06/02 04:38:37;;;;;;;21.60;14.82;;;18.10;99.90;;;18.54;66.49;101323.94;5095811;28;20105;-75
2021/06/02 04:41:09;;;;;;;21.50;16.13;;;18.20;99.90;;;18.45;66.84;101322.41;5095696;28;20101;-75
2021/06/02 04:43:39;;;;;;;19.73;15.98;;;18.00;99.90;;;18.43;66.86;101321.56;5077423;28;20051;-75
2021/06/02 04:46:09;;;;;;;21.48;16.02;;;18.10;99.90;;;18.48;66.84;101321.47;5095551;28;20401;-75
2021/06/02 04:48:37;;;;;;;21.63;15.52;;;18.10;99.90;;;18.12;66.24;101216.22;5095500;28;20058;-75
2021/06/02 04:51:28;;;;;;;20.30;15.75;;;18.20;99.90;;;18.77;65.88;101327.69;5095359;28;20146;-75
2021/06/02 04:54:40;;;;;;;;;;;18.30;99.90;;;18.96;65.81;101333.34;5095652;28;20051;-75
2021/06/02 04:58:03;;;;;;;29.70;15.52;;;18.50;99.90;;;19.14;65.50;101337.25;5077184;28;19943;-75
2021/06/02 05:00:50;;;;;;;16.58;14.73;;;18.70;99.90;;;18.88;64.93;101314.84;5081052;28;20059;-75
2021/06/02 05:04:41;;;;;;;22.88;16.05;;;18.80;99.90;;;19.26;65.21;101347.59;5077025;28;20048;-75
2021/06/02 05:08:21;;;;;;;18.50;15.97;;;18.80;99.90;;;19.36;64.68;101343.69;5077027;28;20124;-75
2021/06/02 05:11:38;;;;;;;17.27;15.48;;;19.00;99.90;;;19.53;64.48;101349.41;5094827;28;20700;-75
2021/06/02 05:15:12;;;;;;;20.00;16.92;;;19.10;99.90;;;19.64;64.38;101353.50;5094853;28;20117;-75
2021/06/02 05:18:08;;;;;;;18.73;15.43;;;19.20;99.90;;;19.64;63.97;101352.59;5095011;28;20378;-75
2021/06/02 05:24:52;;;;;;;18.92;15.88;;;19.30;99.90;;;19.53;64.09;101354.78;5094508;28;20048;-75
2021/06/02 05:28:20;;;;;;;18.55;16.63;;;19.20;99.90;;;19.65;64.04;101359.72;5094405;28;20040;-75
2021/06/02 05:31:37;;;;;;;22.83;17.40;;;19.20;99.90;;;19.74;64.10;101352.22;5085957;28;20113;-75
2021/06/02 05:34:55;;;;;;;22.73;15.93;;;19.30;99.90;;;19.79;63.84;101357.44;5053675;28;20063;-75
2021/06/02 05:38:14;;;;;;;24.45;17.33;;;19.40;99.90;;;19.55;63.92;101320.72;5094193;28;20043;-75
2021/06/02 05:41:10;;;;;;;20.33;16.25;;;19.40;99.90;;;19.72;63.94;101356.78;5076348;28;20044;-75
2021/06/02 05:44:41;;;;;;;21.30;16.42;;;19.40;99.90;;;19.90;63.74;101349.88;5070597;28;20080;-75
2021/06/02 05:47:51;;;;;;;19.60;15.82;;;19.50;99.90;;;19.70;62.73;101296.03;5076153;28;20079;-75
2021/06/02 05:51:07;;;;;;;25.23;15.70;;;19.60;99.90;;;20.00;62.89;101339.69;5087372;28;20099;-75
2021/06/02 05:54:01;;;;;;;20.58;16.80;;;19.60;99.90;;;20.05;63.07;101348.50;5093924;28;20101;-75
2021/06/02 05:57:15;;;;;;;19.98;15.98;;;19.70;99.90;;;20.19;62.60;101347.06;5075757;28;20063;-75
2021/06/02 06:00:29;;;;;;;22.20;16.70;;;19.80;99.90;;;20.17;62.21;101343.53;5093956;28;20036;-75
2021/06/02 06:03:52;;;;;;;22.83;17.05;;;19.90;99.90;;;20.29;62.39;101347.63;5093885;28;20048;-75
2021/06/02 06:06:31;;;;;;;20.10;16.35;;;19.90;99.90;;;20.24;62.05;101331.69;5061495;28;20052;-76
2021/06/02 06:10:03;;;;;;;20.00;16.42;;;19.90;99.90;;;20.44;62.16;101331.81;5093641;28;20409;-76
2021/06/02 06:13:13;;;;;;;23.02;17.35;;;20.00;99.90;;;20.49;62.59;101327.16;5093894;28;20125;-68
2021/06/02 06:16:19;;;;;;;20.08;17.20;;;20.20;99.90;;;20.77;61.90;101332.31;5075554;28;20418;-68
2021/06/02 06:19:15;;;;;;;21.02;16.75;;;20.40;99.90;;;20.90;61.07;101320.19;5093704;28;20051;-68
2021/06/02 06:22:05;;;;;;;22.15;16.67;;;20.60;99.90;;;20.79;60.79;101321.53;5075476;28;20147;-67
2021/06/02 06:24:41;;;;;;;19.93;15.70;;;20.50;99.90;;;21.00;60.88;101342.19;5093398;28;20044;-69
2021/06/02 06:27:17;;;;;;;21.23;17.85;;;20.60;99.90;;;20.98;60.26;101344.94;5093947;28;20101;-67
2021/06/02 06:29:57;;;;;;;23.48;16.38;;;20.70;99.90;;;21.10;60.81;101332.88;5075385;28;20040;-68
2021/06/02 06:32:26;;;;;;;20.17;16.90;;;20.80;99.90;;;20.93;61.51;101364.88;5075604;28;20085;-68
2021/06/02 06:34:55;;;;;;;28.42;17.17;;;20.60;99.90;;;20.84;61.19;101336.56;5093591;28;20048;-68
2021/06/02 06:37:30;;;;;;;21.13;16.23;;;20.50;99.90;;;20.65;61.40;101339.06;5093276;28;20093;-66
2021/06/02 06:40:03;;;;;;;20.48;17.63;;;20.40;99.90;;;20.57;62.36;101341.19;5075199;28;20093;-70
2021/06/02 06:42:38;;;;;;;20.70;17.38;;;20.20;99.90;;;20.46;62.77;101327.25;5093424;28;20048;-70
2021/06/02 06:45:11;;;;;;;25.10;17.45;;;20.20;99.90;;;20.73;61.67;101337.91;5093229;28;20101;-70
2021/06/02 06:47:41;;;;;;;19.17;16.95;;;20.30;99.90;;;20.65;61.76;101335.50;5092572;28;20622;-69
2021/06/02 06:50:13;;;;;;;21.05;16.55;;;20.30;99.90;;;20.76;62.26;101330.59;5093175;28;20059;-70
2021/06/02 06:52:48;;;;;;;23.08;16.70;;;20.40;99.90;;;20.91;61.26;101331.78;5074916;28;20059;-70
2021/06/02 06:55:17;;;;;;;19.23;16.58;;;20.60;99.90;;;21.02;61.24;101334.97;5074759;28;20055;-70
2021/06/02 06:57:47;;;;;;;20.88;17.55;;;20.70;99.90;;;20.76;62.43;101338.66;5092591;28;20448;-70
2021/06/02 07:00:18;;;;;;;20.08;17.05;;;20.40;99.90;;;20.84;63.59;101325.78;5092659;28;20085;-68
2021/06/02 07:02:46;;;;;;;23.17;16.83;;;20.40;99.90;;;21.22;63.00;101329.66;5092862;28;20044;-67
2021/06/02 07:05:15;;;;;;;22.33;17.85;;;20.70;99.90;;;21.52;61.66;101328.41;5092868;28;20043;-67
2021/06/02 07:07:45;;;;;;;23.00;17.02;;;21.10;99.90;;;21.46;60.83;101312.50;5092564;28;20553;-68
2021/06/02 07:10:15;;;;;;;19.92;16.20;;;21.20;99.90;;;21.70;60.50;101329.44;5074537;28;20047;-68
2021/06/02 07:12:45;;;;;;;18.67;16.67;;;21.30;99.90;;;21.58;60.05;101334.38;5092776;28;20054;-67
2021/06/02 07:15:17;;;;;;;21.23;16.05;;;21.30;99.90;;;21.64;60.64;101327.84;5092831;28;20043;-70
2021/06/02 07:17:53;;;;;;;27.35;17.55;;;21.30;99.90;;;21.29;61.87;101339.25;5092533;28;20048;-69
2021/06/02 07:20:23;;;;;;;;;;;21.10;99.90;;;21.38;61.65;101344.25;5093085;28;20105;-70
2021/06/02 07:22:52;;;;;;;24.17;18.55;;;21.10;99.90;;;21.03;62.89;101320.59;5075960;28;20019;-71
2021/06/02 07:25:24;;;;;;;28.02;18.15;;;20.80;99.90;;;20.93;61.66;101330.81;5092207;28;20131;-71
2021/06/02 07:27:54;;;;;;;22.98;18.45;;;20.70;99.90;;;21.38;62.01;101317.34;5092632;28;20131;-71
2021/06/02 07:30:26;;;;;;;;;;;20.90;99.90;;;21.61;62.32;101324.44;5074808;28;20059;-69
2021/06/02 07:32:54;;;;;;;22.35;17.05;;;21.20;99.90;;;21.84;61.92;101327.94;5074375;28;20009;-70
2021/06/02 07:35:23;;;;;;;23.23;19.17;;;21.40;99.90;;;21.79;61.46;101340.69;5086819;28;20055;-70
2021/06/02 07:37:52;;;;;;;43.42;29.77;;;21.50;99.90;;;22.00;61.80;101334.41;5112267;28;20044;-68
2021/06/02 07:40:20;;;;;;;23.88;20.05;;;21.60;99.90;;;22.29;60.74;101322.31;5112695;28;20050;-70
2021/06/02 07:42:51;;;;;;;24.42;17.52;;;22.00;99.90;;;22.18;59.13;101338.97;5112432;28;20047;-70
2021/06/02 07:45:20;;;;;;;22.48;16.50;;;21.90;99.90;;;22.00;59.46;101342.50;5094285;28;20047;-70
2021/06/02 07:47:49;;;;;;;17.90;16.10;;;21.70;99.90;;;22.46;60.02;101341.28;5109479;28;20101;-70
2021/06/02 07:50:17;;;;;;;19.55;16.48;;;22.00;99.90;;;22.73;57.98;101358.03;5092331;28;20051;-70
2021/06/02 07:52:45;;;;;;;19.52;15.27;;;22.30;99.90;;;22.55;58.40;101334.63;5092154;28;20044;-70
2021/06/02 07:55:14;;;;;;;21.85;15.68;;;22.20;99.90;;;21.44;57.43;101241.69;5092144;28;20036;-70
2021/06/02 07:57:42;;;;;;;19.00;15.43;;;21.80;99.90;;;22.18;56.64;101332.72;5091823;28;20494;-70
2021/06/02 08:00:12;;;;;;;20.20;15.60;;;21.80;99.90;;;22.36;56.95;101321.09;5095608;28;20052;-71
2021/06/02 08:02:42;;;;;;;19.63;15.73;;;22.00;99.90;;;22.64;56.15;101342.31;5096297;28;20062;-70
2021/06/02 08:05:15;;;;;;;20.55;15.88;;;22.20;99.90;;;22.72;54.94;101342.81;5077910;28;20052;-70
2021/06/02 08:07:44;;;;;;;23.42;15.13;;;22.40;99.90;;;22.94;56.61;101335.44;5095815;28;20062;-71
2021/06/02 08:10:17;;;;;;;20.65;14.57;;;22.50;99.90;;;23.28;54.89;101336.47;5095980;28;20051;-70
2021/06/02 08:12:47;;;;;;;21.20;15.17;;;22.80;99.90;;;23.19;55.82;101342.28;5095887;28;20081;-70
2021/06/02 08:15:18;;;;;;;17.10;15.30;;;22.90;99.90;;;23.15;55.25;101337.13;5077995;28;20048;-70
2021/06/02 08:17:46;;;;;;;20.95;15.20;;;22.80;99.90;;;22.84;53.43;101339.56;5096211;28;20102;-71
2021/06/02 08:20:17;;;;;;;18.65;14.70;;;22.70;99.90;;;22.78;52.67;101342.53;5077649;28;20051;-70
2021/06/02 08:22:45;;;;;;;17.17;15.40;;;22.50;99.90;;;22.96;54.12;101337.13;5095585;28;20093;-71
2021/06/02 08:25:16;;;;;;;26.23;15.50;;;22.50;99.90;;;23.09;54.18;101338.28;5109717;28;20396;-70
2021/06/02 08:27:45;;;;;;;;;;;22.70;99.90;;;23.09;55.38;101334.72;5114506;28;20054;-70
2021/06/02 08:30:14;;;;;;;17.95;15.25;;;22.70;99.90;;;23.24;54.88;101342.06;5114823;28;20395;-70
2021/06/02 08:32:42;;;;;;;18.02;14.15;;;22.80;99.90;;;23.49;53.96;101328.25;5116174;28;20047;-70
2021/06/02 08:35:15;;;;;;;16.95;15.05;;;23.10;99.90;;;23.70;52.38;101355.06;5097549;28;20446;-70
2021/06/02 08:37:44;;;;;;;18.42;14.70;;;23.40;99.90;;;23.69;51.05;101357.84;5116108;28;20044;-70
2021/06/02 08:40:14;;;;;;;21.85;16.17;;;23.50;99.90;;;23.42;51.93;101359.22;5116343;28;20051;-71
2021/06/02 08:42:42;;;;;;;20.05;15.57;;;23.20;99.90;;;23.48;53.30;101357.09;5097763;28;20044;-70
2021/06/02 08:45:13;;;;;;;18.35;14.65;;;23.10;99.90;;;23.90;52.56;101363.03;5115975;28;20048;-70
2021/06/02 08:47:42;;;;;;;;;;;23.40;99.90;;;24.09;53.00;101349.47;5116414;28;20043;-70
2021/06/02 08:50:13;;;;;;;20.40;15.43;;;23.70;99.90;;;24.21;52.70;101359.63;5115952;28;20010;-70
2021/06/02 08:52:44;;;;;;;29.55;16.92;;;23.80;99.90;;;24.46;52.54;101362.78;5115878;28;20469;-68
2021/06/02 08:55:15;;;;;;;37.08;17.70;;;24.10;99.90;;;24.77;51.69;101368.31;5097400;28;20043;-71
2021/06/02 08:57:45;;;;;;;19.70;14.82;;;24.40;99.90;;;24.69;50.66;101359.69;5115415;28;20043;-71
2021/06/02 09:00:17;;;;;;;18.73;15.50;;;24.40;99.90;;;24.76;50.97;101353.00;5115882;28;20055;-71
2021/06/02 09:02:47;;;;;;;24.45;17.92;;;24.40;99.90;;;25.07;49.92;101365.72;5097301;28;20521;-72
2021/06/02 09:05:16;;;;;;;50.42;42.08;;;24.70;99.90;;;24.86;51.92;101351.56;5115706;28;20565;-71
2021/06/02 09:07:50;;;;;;;44.33;36.72;;;24.50;99.90;;;24.99;50.29;101365.25;5115224;28;20400;-72
2021/06/02 09:10:20;;;;;;;26.23;17.95;;;24.60;99.90;;;25.08;51.58;101355.75;5115020;28;20044;-71
2021/06/02 09:12:56;;;;;;;22.17;16.38;;;24.60;99.90;;;25.30;49.41;101357.16;5097125;28;20052;-69
2021/06/02 09:15:24;;;;;;;15.73;13.70;;;24.90;99.90;;;25.13;49.10;101345.53;5097056;28;20047;-69
2021/06/02 09:17:58;;;;;;;16.02;12.93;;;24.80;99.90;;;25.51;48.68;101350.50;5115136;28;20047;-69
2021/06/02 09:20:41;;;;;;;21.52;13.68;;;25.10;99.90;;;25.57;47.91;101350.16;5115252;28;20485;-70
2021/06/02 09:23:34;;;;;;;13.20;11.65;;;25.30;99.90;;;25.43;48.20;101360.06;5096847;28;20058;-68
2021/06/02 09:26:18;;;;;;;15.23;13.00;;;25.10;99.90;;;25.84;48.31;101351.22;5115184;28;20039;-70
2021/06/02 09:28:58;;;;;;;16.98;13.05;;;25.40;99.90;;;25.75;49.17;101354.50;5115125;28;20075;-71
2021/06/02 09:31:31;;;;;;;18.88;14.15;;;25.50;99.90;;;25.87;47.77;101356.50;5114855;28;20167;-69
2021/06/02 09:34:04;;;;;;;16.08;11.70;;;25.50;99.90;;;25.83;46.87;101351.34;5114846;28;20109;-71
2021/06/02 09:36:34;;;;;;;16.95;12.15;;;25.60;99.90;;;25.82;46.87;101350.44;5114785;28;20447;-71
2021/06/02 09:39:07;;;;;;;16.50;14.10;;;25.50;99.90;;;25.61;46.20;101340.03;5114606;28;20480;-72
2021/06/02 09:41:40;;;;;;;18.48;11.25;;;25.40;99.90;;;25.65;46.54;101353.28;5114699;28;20489;-71
2021/06/02 09:44:20;;;;;;;12.88;10.90;;;25.30;99.90;;;25.49;46.13;101325.34;5114869;28;20047;-72
2021/06/02 09:47:04;;;;;;;13.25;11.38;;;25.30;99.90;;;25.84;46.87;101353.94;5114884;28;20112;-71
2021/06/02 09:49:48;;;;;;;15.65;12.05;;;25.40;99.90;;;26.03;46.21;101353.72;5114805;28;20450;-72
2021/06/02 09:52:17;;;;;;;13.50;11.25;;;25.70;99.90;;;25.90;45.38;101348.16;5096380;28;20090;-70
2021/06/02 09:54:48;;;;;;;15.23;11.55;;;25.60;99.90;;;25.86;45.58;101315.91;5114714;28;20403;-69
2021/06/02 09:57:52;;;;;;;15.35;10.32;;;25.70;99.90;;;26.50;46.27;101350.84;5114797;28;20040;-68
2021/06/02 10:00:58;;;;;;;14.40;8.77;;;26.00;99.90;;;25.63;42.62;101222.41;5096411;28;20039;-72
2021/06/02 10:03:45;;;;;;;12.15;9.95;;;26.20;99.90;;;26.43;44.19;101357.59;5095676;28;20096;-69
2021/06/02 10:06:16;;;;;;;14.82;9.68;;;26.20;99.90;;;26.48;45.36;101347.34;5113965;28;20485;-67
2021/06/02 10:08:55;;;;;;;14.30;9.52;;;26.20;99.90;;;26.57;42.96;101344.91;5114041;28;20039;-65
2021/06/02 10:11:29;;;;;;;14.80;9.83;;;26.20;99.90;;;26.73;43.51;101351.13;5095873;28;20100;-65
2021/06/02 10:13:58;;;;;;;16.23;8.15;;;26.40;99.90;;;26.76;42.75;101348.25;5114237;28;20043;-65
2021/06/02 10:16:40;;;;;;;11.65;8.40;;;26.50;99.90;;;27.06;44.30;101355.38;5113924;28;20040;-66
2021/06/02 10:19:08;;;;;;;11.07;9.15;;;26.60;99.90;;;27.19;42.88;101349.06;5113865;28;20051;-67
2021/06/02 10:21:44;;;;;;;10.15;8.10;;;26.80;99.90;;;27.37;42.10;101356.00;5113076;28;20131;-65
2021/06/02 10:24:12;;;;;;;10.43;7.97;;;27.10;99.90;;;27.10;40.75;101355.06;5114028;28;20123;-66
2021/06/02 10:26:41;;;;;;;11.38;7.25;;;26.80;99.90;;;26.89;40.24;101356.47;5114147;28;20113;-65
2021/06/02 10:29:09;;;;;;;11.73;8.43;;;26.60;99.90;;;26.91;40.87;101348.22;5095761;28;20039;-66
2021/06/02 10:31:37;;;;;;;9.20;7.70;;;26.40;99.90;;;27.01;40.51;101343.94;5113797;28;20121;-66
2021/06/02 10:34:05;;;;;;;9.68;7.05;;;26.60;99.90;;;27.18;41.04;101346.41;5113798;28;20059;-66
2021/06/02 10:36:34;;;;;;;10.38;7.72;;;26.80;99.90;;;27.11;42.02;101329.66;5095482;28;20465;-66
2021/06/02 10:39:07;;;;;;;11.68;7.35;;;26.80;99.90;;;27.28;40.70;101348.44;5113629;28;20044;-67
2021/06/02 10:41:43;;;;;;;7.68;6.05;;;26.90;99.90;;;27.14;39.79;101334.88;5113475;28;20109;-66
2021/06/02 10:44:16;;;;;;;10.60;6.78;;;26.70;99.90;;;27.52;40.47;101344.13;5113849;28;20088;-67
2021/06/02 10:46:47;;;;;;;7.32;6.25;;;27.10;99.90;;;27.54;42.21;101335.88;5113361;28;20093;-69
2021/06/02 10:49:27;;;;;;;6.90;5.88;;;27.10;99.90;;;27.45;37.09;101341.91;5113280;28;20415;-66
2021/06/02 10:51:56;;;;;;;8.27;5.85;;;27.10;99.90;;;27.35;37.15;101338.94;5113188;28;20085;-66
2021/06/02 10:54:36;;;;;;;6.50;5.53;;;27.10;99.90;;;27.38;38.76;101336.03;5113480;28;20066;-65
2021/06/02 10:57:12;;;;;;;6.38;5.65;;;27.00;99.90;;;27.53;35.53;101325.94;5113662;28;20051;-65
2021/06/02 10:59:42;;;;;;;6.47;5.20;;;27.30;99.90;;;27.55;37.23;101346.63;5094953;28;20134;-66
2021/06/02 11:02:12;;;;;;;6.95;6.25;;;27.20;99.90;;;27.30;35.57;101329.31;5113475;28;20043;-65
2021/06/02 11:04:41;;;;;;;8.55;5.88;;;27.00;99.90;;;27.37;37.17;101323.41;5112903;28;20055;-67